sensor_id;sensor_type;location;lat;lon;timestamp;P1;durP1;ratioP1;P2;durP2;ratioP2
15500;SDS011;7852;52.228;5.990;2023-10-08T00:00:59;18.8;;;11.2;;
15500;SDS011;7852;52.228;5.990;2023-10-08T00:01:11;21.1;;;11.8;;
15500;SDS011;7852;52.228;5.990;2023-10-08T00:02:11;25;;;11.7;;
15500;SDS011;7852;52.228;5.990;2023-10-08T00:03:11;17.4;;;11.4;;
15500;SDS011;7852;52.228;5.990;2023-10-08T00:04:11;21;;;11.4;;
15500;SDS011;7852;52.228;5.990;2023-10-08T00:05:11;22.9;;;11.7;;
15500;SDS011;7852;52.228;5.990;2023-10-08T00:06:11;19.5;;;11.3;;
15500;SDS011;7852;52.228;5.990;2023-10-08T00:07:11;21.2;;;11.7;;
15500;SDS011;7852;52.228;5.990;2023-10-08T00:08:11;20.9;;;11.9;;
15500;SDS011;7852;52.228;5.990;2023-10-08T00:09:11;19.8;;;11.1;;
15500;SDS011;7852;52.228;5.990;2023-10-08T00:10:11;13.9;;;10.7;;
15500;SDS011;7852;52.228;5.990;2023-10-08T00:11:11;17.6;;;10.9;;
15500;SDS011;7852;52.228;5.990;2023-10-08T00:12:11;20.1;;;11.3;;
15500;SDS011;7852;52.228;5.990;2023-10-08T00:13:11;22.4;;;11.1;;
15500;SDS011;7852;52.228;5.990;2023-10-08T00:14:11;16.9;;;10.9;;
15500;SDS011;7852;52.228;5.990;2023-10-08T00:15:11;20.2;;;11.1;;
15500;SDS011;7852;52.228;5.990;2023-10-08T00:16:12;21.3;;;11.3;;
15500;SDS011;7852;52.228;5.990;2023-10-08T00:17:12;23.9;;;11.9;;
15500;SDS011;7852;52.228;5.990;2023-10-08T00:18:11;23.4;;;11.9;;
15500;SDS011;7852;52.228;5.990;2023-10-08T00:19:11;20.3;;;11.6;;
15500;SDS011;7852;52.228;5.990;2023-10-08T00:20:11;18.5;;;10.9;;
15500;SDS011;7852;52.228;5.990;2023-10-08T00:21:11;18.9;;;11.3;;
15500;SDS011;7852;52.228;5.990;2023-10-08T00:22:11;20.9;;;11.2;;
15500;SDS011;7852;52.228;5.990;2023-10-08T00:23:11;23.3;;;11.7;;
15500;SDS011;7852;52.228;5.990;2023-10-08T00:24:11;23.1;;;11.1;;
15500;SDS011;7852;52.228;5.990;2023-10-08T00:25:11;21.3;;;12.1;;
15500;SDS011;7852;52.228;5.990;2023-10-08T00:26:11;22.4;;;11.9;;
15500;SDS011;7852;52.228;5.990;2023-10-08T00:27:11;20.4;;;11.9;;
15500;SDS011;7852;52.228;5.990;2023-10-08T00:28:11;20.7;;;11.4;;
15500;SDS011;7852;52.228;5.990;2023-10-08T00:29:11;16.6;;;11.8;;
15500;SDS011;7852;52.228;5.990;2023-10-08T00:30:12;19.2;;;12.5;;
15500;SDS011;7852;52.228;5.990;2023-10-08T00:31:11;18.6;;;12.1;;
15500;SDS011;7852;52.228;5.990;2023-10-08T00:32:11;20.3;;;11.8;;
15500;SDS011;7852;52.228;5.990;2023-10-08T00:33:11;19.7;;;12;;
15500;SDS011;7852;52.228;5.990;2023-10-08T00:34:11;23;;;12.4;;
15500;SDS011;7852;52.228;5.990;2023-10-08T00:35:11;18.5;;;11.8;;
15500;SDS011;7852;52.228;5.990;2023-10-08T00:36:11;17;;;12.2;;
15500;SDS011;7852;52.228;5.990;2023-10-08T00:37:11;23;;;12.4;;
15500;SDS011;7852;52.228;5.990;2023-10-08T00:38:11;22.3;;;11.6;;
15500;SDS011;7852;52.228;5.990;2023-10-08T00:39:12;19.9;;;12.2;;
15500;SDS011;7852;52.228;5.990;2023-10-08T00:40:11;22.5;;;11.8;;
15500;SDS011;7852;52.228;5.990;2023-10-08T00:41:12;21;;;12.2;;
15500;SDS011;7852;52.228;5.990;2023-10-08T00:42:11;14.9;;;11.5;;
15500;SDS011;7852;52.228;5.990;2023-10-08T00:43:28;20.8;;;12.7;;
15500;SDS011;7852;52.228;5.990;2023-10-08T00:44:12;22.5;;;12.6;;
15500;SDS011;7852;52.228;5.990;2023-10-08T00:45:11;20.3;;;12.2;;
15500;SDS011;7852;52.228;5.990;2023-10-08T00:46:11;18.4;;;12.3;;
15500;SDS011;7852;52.228;5.990;2023-10-08T00:47:11;20.5;;;11.5;;
15500;SDS011;7852;52.228;5.990;2023-10-08T00:48:11;20.2;;;12;;
15500;SDS011;7852;52.228;5.990;2023-10-08T00:49:11;18.7;;;12.3;;
15500;SDS011;7852;52.228;5.990;2023-10-08T00:50:11;25.2;;;12.1;;
15500;SDS011;7852;52.228;5.990;2023-10-08T00:51:11;21.5;;;11.9;;
15500;SDS011;7852;52.228;5.990;2023-10-08T00:52:12;17.3;;;12.1;;
15500;SDS011;7852;52.228;5.990;2023-10-08T00:53:11;18;;;12.6;;
15500;SDS011;7852;52.228;5.990;2023-10-08T00:54:11;16.9;;;11.7;;
15500;SDS011;7852;52.228;5.990;2023-10-08T00:55:11;17.9;;;11.5;;
15500;SDS011;7852;52.228;5.990;2023-10-08T00:56:11;19.2;;;12;;
15500;SDS011;7852;52.228;5.990;2023-10-08T00:57:11;21.6;;;11.5;;
15500;SDS011;7852;52.228;5.990;2023-10-08T00:58:11;18.4;;;11.8;;
15500;SDS011;7852;52.228;5.990;2023-10-08T00:59:11;18.7;;;12.1;;
15500;SDS011;7852;52.228;5.990;2023-10-08T01:00:12;18.2;;;12.1;;
15500;SDS011;7852;52.228;5.990;2023-10-08T01:01:11;20.2;;;11.7;;
15500;SDS011;7852;52.228;5.990;2023-10-08T01:02:11;16.7;;;11.7;;
15500;SDS011;7852;52.228;5.990;2023-10-08T01:03:11;22;;;12.4;;
15500;SDS011;7852;52.228;5.990;2023-10-08T01:04:15;20.5;;;11.4;;
15500;SDS011;7852;52.228;5.990;2023-10-08T01:05:12;16.9;;;11.2;;
15500;SDS011;7852;52.228;5.990;2023-10-08T01:06:11;20.4;;;11.6;;
15500;SDS011;7852;52.228;5.990;2023-10-08T01:07:12;18;;;12.5;;
15500;SDS011;7852;52.228;5.990;2023-10-08T01:08:12;18.4;;;11.8;;
15500;SDS011;7852;52.228;5.990;2023-10-08T01:09:11;18.6;;;11.3;;
15500;SDS011;7852;52.228;5.990;2023-10-08T01:10:11;24.2;;;12.7;;
15500;SDS011;7852;52.228;5.990;2023-10-08T01:11:19;22.5;;;12.5;;
15500;SDS011;7852;52.228;5.990;2023-10-08T01:12:12;18.9;;;11.6;;
15500;SDS011;7852;52.228;5.990;2023-10-08T01:13:11;18.9;;;12.2;;
15500;SDS011;7852;52.228;5.990;2023-10-08T01:14:11;19.2;;;12;;
15500;SDS011;7852;52.228;5.990;2023-10-08T01:15:11;15.9;;;11.6;;
15500;SDS011;7852;52.228;5.990;2023-10-08T01:16:11;14.6;;;12;;
15500;SDS011;7852;52.228;5.990;2023-10-08T01:17:12;21.7;;;11.5;;
15500;SDS011;7852;52.228;5.990;2023-10-08T01:18:11;17.9;;;12.6;;
15500;SDS011;7852;52.228;5.990;2023-10-08T01:19:11;22;;;12.6;;
15500;SDS011;7852;52.228;5.990;2023-10-08T01:20:11;21.3;;;12.6;;
15500;SDS011;7852;52.228;5.990;2023-10-08T01:21:11;20.9;;;12;;
15500;SDS011;7852;52.228;5.990;2023-10-08T01:22:11;21.3;;;12.5;;
15500;SDS011;7852;52.228;5.990;2023-10-08T01:23:11;21.4;;;13.7;;
15500;SDS011;7852;52.228;5.990;2023-10-08T01:24:11;22.3;;;14.5;;
15500;SDS011;7852;52.228;5.990;2023-10-08T01:25:11;21;;;14.4;;
15500;SDS011;7852;52.228;5.990;2023-10-08T01:26:11;20.8;;;12.7;;
15500;SDS011;7852;52.228;5.990;2023-10-08T01:27:11;19.9;;;12.4;;
15500;SDS011;7852;52.228;5.990;2023-10-08T01:28:11;17.5;;;11.6;;
15500;SDS011;7852;52.228;5.990;2023-10-08T01:29:12;15.5;;;11.8;;
15500;SDS011;7852;52.228;5.990;2023-10-08T01:30:12;22.6;;;12.5;;
15500;SDS011;7852;52.228;5.990;2023-10-08T01:31:11;19.5;;;12.9;;
15500;SDS011;7852;52.228;5.990;2023-10-08T01:32:11;21.5;;;12.3;;
15500;SDS011;7852;52.228;5.990;2023-10-08T01:33:11;20.5;;;12.4;;
15500;SDS011;7852;52.228;5.990;2023-10-08T01:34:11;22.9;;;12.4;;
15500;SDS011;7852;52.228;5.990;2023-10-08T01:35:11;20.8;;;11.9;;
15500;SDS011;7852;52.228;5.990;2023-10-08T01:36:11;22.8;;;12.4;;
15500;SDS011;7852;52.228;5.990;2023-10-08T01:37:12;20.6;;;12.2;;
15500;SDS011;7852;52.228;5.990;2023-10-08T01:38:11;16.5;;;11.2;;
15500;SDS011;7852;52.228;5.990;2023-10-08T01:39:11;17.4;;;12.5;;
15500;SDS011;7852;52.228;5.990;2023-10-08T01:40:11;19.7;;;12.5;;
15500;SDS011;7852;52.228;5.990;2023-10-08T01:41:11;22.6;;;13.1;;
15500;SDS011;7852;52.228;5.990;2023-10-08T01:42:11;20.4;;;12.1;;
15500;SDS011;7852;52.228;5.990;2023-10-08T01:43:11;13.8;;;11.4;;
15500;SDS011;7852;52.228;5.990;2023-10-08T01:44:11;19.4;;;12.7;;
15500;SDS011;7852;52.228;5.990;2023-10-08T01:45:11;19.5;;;12.1;;
15500;SDS011;7852;52.228;5.990;2023-10-08T01:46:11;20.6;;;12.2;;
15500;SDS011;7852;52.228;5.990;2023-10-08T01:47:11;20.3;;;12.5;;
15500;SDS011;7852;52.228;5.990;2023-10-08T01:48:11;22.2;;;12.4;;
15500;SDS011;7852;52.228;5.990;2023-10-08T01:49:11;19.4;;;11.3;;
15500;SDS011;7852;52.228;5.990;2023-10-08T01:50:11;17.1;;;11.9;;
15500;SDS011;7852;52.228;5.990;2023-10-08T01:51:11;16.8;;;11.7;;
15500;SDS011;7852;52.228;5.990;2023-10-08T01:52:11;25.3;;;12.1;;
15500;SDS011;7852;52.228;5.990;2023-10-08T01:53:11;23;;;12.7;;
15500;SDS011;7852;52.228;5.990;2023-10-08T01:54:12;17.8;;;11.6;;
15500;SDS011;7852;52.228;5.990;2023-10-08T01:55:11;19.1;;;12.4;;
15500;SDS011;7852;52.228;5.990;2023-10-08T01:56:11;19.6;;;12.2;;
15500;SDS011;7852;52.228;5.990;2023-10-08T01:57:11;19.6;;;11.8;;
15500;SDS011;7852;52.228;5.990;2023-10-08T01:58:12;22.1;;;12.2;;
15500;SDS011;7852;52.228;5.990;2023-10-08T01:59:12;20.7;;;13;;
15500;SDS011;7852;52.228;5.990;2023-10-08T02:00:12;18.2;;;12.9;;
15500;SDS011;7852;52.228;5.990;2023-10-08T02:01:11;19.2;;;13.3;;
15500;SDS011;7852;52.228;5.990;2023-10-08T02:02:11;19.7;;;12.7;;
15500;SDS011;7852;52.228;5.990;2023-10-08T02:03:12;18.2;;;12.6;;
15500;SDS011;7852;52.228;5.990;2023-10-08T02:04:11;19.8;;;12.3;;
15500;SDS011;7852;52.228;5.990;2023-10-08T02:05:11;18.7;;;12.8;;
15500;SDS011;7852;52.228;5.990;2023-10-08T02:06:11;17.4;;;12.8;;
15500;SDS011;7852;52.228;5.990;2023-10-08T02:07:11;20.2;;;12.5;;
15500;SDS011;7852;52.228;5.990;2023-10-08T02:08:12;17.7;;;11.8;;
15500;SDS011;7852;52.228;5.990;2023-10-08T02:09:11;16.7;;;12.3;;
15500;SDS011;7852;52.228;5.990;2023-10-08T02:10:11;22.2;;;13;;
15500;SDS011;7852;52.228;5.990;2023-10-08T02:11:11;21.2;;;12.8;;
15500;SDS011;7852;52.228;5.990;2023-10-08T02:12:11;19.5;;;12.8;;
15500;SDS011;7852;52.228;5.990;2023-10-08T02:13:11;18.7;;;12.3;;
15500;SDS011;7852;52.228;5.990;2023-10-08T02:14:11;17.8;;;12.1;;
15500;SDS011;7852;52.228;5.990;2023-10-08T02:15:11;21.5;;;12.8;;
15500;SDS011;7852;52.228;5.990;2023-10-08T02:16:11;18.5;;;12;;
15500;SDS011;7852;52.228;5.990;2023-10-08T02:17:11;18.6;;;12.2;;
15500;SDS011;7852;52.228;5.990;2023-10-08T02:18:11;19.6;;;12.9;;
15500;SDS011;7852;52.228;5.990;2023-10-08T02:19:12;17;;;12.5;;
15500;SDS011;7852;52.228;5.990;2023-10-08T02:20:11;21.6;;;13.1;;
15500;SDS011;7852;52.228;5.990;2023-10-08T02:21:11;21.7;;;13.3;;
15500;SDS011;7852;52.228;5.990;2023-10-08T02:22:11;19.9;;;12.6;;
15500;SDS011;7852;52.228;5.990;2023-10-08T02:23:11;19.4;;;13.1;;
15500;SDS011;7852;52.228;5.990;2023-10-08T02:24:12;21.9;;;13.3;;
15500;SDS011;7852;52.228;5.990;2023-10-08T02:25:11;19.2;;;13;;
15500;SDS011;7852;52.228;5.990;2023-10-08T02:26:11;21.6;;;13.5;;
15500;SDS011;7852;52.228;5.990;2023-10-08T02:27:11;21.2;;;13.3;;
15500;SDS011;7852;52.228;5.990;2023-10-08T02:28:11;22.4;;;12.8;;
15500;SDS011;7852;52.228;5.990;2023-10-08T02:29:11;22.8;;;13.3;;
15500;SDS011;7852;52.228;5.990;2023-10-08T02:30:11;19.1;;;12.4;;
15500;SDS011;7852;52.228;5.990;2023-10-08T02:31:11;19.9;;;12.6;;
15500;SDS011;7852;52.228;5.990;2023-10-08T02:32:11;20.6;;;13.1;;
15500;SDS011;7852;52.228;5.990;2023-10-08T02:33:11;18.4;;;13.2;;
15500;SDS011;7852;52.228;5.990;2023-10-08T02:34:11;23;;;13.6;;
15500;SDS011;7852;52.228;5.990;2023-10-08T02:35:11;25;;;15;;
15500;SDS011;7852;52.228;5.990;2023-10-08T02:36:11;21.9;;;14.9;;
15500;SDS011;7852;52.228;5.990;2023-10-08T02:37:11;23.5;;;14.3;;
15500;SDS011;7852;52.228;5.990;2023-10-08T02:38:12;19.1;;;13.2;;
15500;SDS011;7852;52.228;5.990;2023-10-08T02:39:11;16.5;;;12.6;;
15500;SDS011;7852;52.228;5.990;2023-10-08T02:40:11;15.4;;;11.1;;
15500;SDS011;7852;52.228;5.990;2023-10-08T02:41:15;15.4;;;11.2;;
15500;SDS011;7852;52.228;5.990;2023-10-08T02:42:11;13.3;;;11;;
15500;SDS011;7852;52.228;5.990;2023-10-08T02:43:12;15.6;;;10.8;;
15500;SDS011;7852;52.228;5.990;2023-10-08T02:44:11;13.3;;;11.9;;
15500;SDS011;7852;52.228;5.990;2023-10-08T02:45:12;12.9;;;10.2;;
15500;SDS011;7852;52.228;5.990;2023-10-08T02:46:11;10.9;;;9.8;;
15500;SDS011;7852;52.228;5.990;2023-10-08T02:47:11;12.5;;;9.3;;
15500;SDS011;7852;52.228;5.990;2023-10-08T02:48:11;10.3;;;9.3;;
15500;SDS011;7852;52.228;5.990;2023-10-08T02:49:11;11.2;;;10.1;;
15500;SDS011;7852;52.228;5.990;2023-10-08T02:50:11;14.6;;;9.3;;
15500;SDS011;7852;52.228;5.990;2023-10-08T02:51:11;10.3;;;9;;
15500;SDS011;7852;52.228;5.990;2023-10-08T02:52:11;10.3;;;9.2;;
15500;SDS011;7852;52.228;5.990;2023-10-08T02:53:11;9.6;;;8.8;;
15500;SDS011;7852;52.228;5.990;2023-10-08T02:54:11;8.6;;;7.4;;
15500;SDS011;7852;52.228;5.990;2023-10-08T02:55:11;8.6;;;7.8;;
15500;SDS011;7852;52.228;5.990;2023-10-08T02:56:11;10.6;;;7.7;;
15500;SDS011;7852;52.228;5.990;2023-10-08T02:57:11;7.8;;;7.2;;
15500;SDS011;7852;52.228;5.990;2023-10-08T02:58:11;8.2;;;7.5;;
15500;SDS011;7852;52.228;5.990;2023-10-08T02:59:12;9.7;;;6.8;;
15500;SDS011;7852;52.228;5.990;2023-10-08T03:00:12;7.6;;;7;;
15500;SDS011;7852;52.228;5.990;2023-10-08T03:01:11;7.8;;;6.8;;
15500;SDS011;7852;52.228;5.990;2023-10-08T03:02:12;7.1;;;6.5;;
15500;SDS011;7852;52.228;5.990;2023-10-08T03:03:11;9.8;;;7.5;;
15500;SDS011;7852;52.228;5.990;2023-10-08T03:04:11;7.2;;;6.5;;
15500;SDS011;7852;52.228;5.990;2023-10-08T03:05:12;7.7;;;7;;
15500;SDS011;7852;52.228;5.990;2023-10-08T03:06:11;7.9;;;7.3;;
15500;SDS011;7852;52.228;5.990;2023-10-08T03:07:11;7.6;;;7;;
15500;SDS011;7852;52.228;5.990;2023-10-08T03:08:12;8.9;;;7.3;;
15500;SDS011;7852;52.228;5.990;2023-10-08T03:09:11;8.8;;;7.2;;
15500;SDS011;7852;52.228;5.990;2023-10-08T03:10:11;8.4;;;7.7;;
15500;SDS011;7852;52.228;5.990;2023-10-08T03:11:11;7.2;;;6.7;;
15500;SDS011;7852;52.228;5.990;2023-10-08T03:12:11;7.6;;;6.9;;
15500;SDS011;7852;52.228;5.990;2023-10-08T03:13:11;7.4;;;6.8;;
15500;SDS011;7852;52.228;5.990;2023-10-08T03:14:11;7;;;6.4;;
15500;SDS011;7852;52.228;5.990;2023-10-08T03:15:12;7.5;;;6.9;;
15500;SDS011;7852;52.228;5.990;2023-10-08T03:16:12;6.6;;;6;;
15500;SDS011;7852;52.228;5.990;2023-10-08T03:17:11;6.9;;;6.5;;
15500;SDS011;7852;52.228;5.990;2023-10-08T03:18:11;6.6;;;6.2;;
15500;SDS011;7852;52.228;5.990;2023-10-08T03:19:11;6.9;;;6.5;;
15500;SDS011;7852;52.228;5.990;2023-10-08T03:20:11;8.8;;;6.3;;
15500;SDS011;7852;52.228;5.990;2023-10-08T03:21:11;6.4;;;6;;
15500;SDS011;7852;52.228;5.990;2023-10-08T03:22:11;6.2;;;5.9;;
15500;SDS011;7852;52.228;5.990;2023-10-08T03:23:12;6.6;;;6;;
15500;SDS011;7852;52.228;5.990;2023-10-08T03:24:11;6.1;;;5.8;;
15500;SDS011;7852;52.228;5.990;2023-10-08T03:25:12;6;;;5.6;;
15500;SDS011;7852;52.228;5.990;2023-10-08T03:26:11;6.4;;;5.8;;
15500;SDS011;7852;52.228;5.990;2023-10-08T03:27:11;6.3;;;5.9;;
15500;SDS011;7852;52.228;5.990;2023-10-08T03:28:11;6.7;;;6.4;;
15500;SDS011;7852;52.228;5.990;2023-10-08T03:29:11;7.8;;;6;;
15500;SDS011;7852;52.228;5.990;2023-10-08T03:30:11;6.2;;;5.8;;
15500;SDS011;7852;52.228;5.990;2023-10-08T03:31:11;6.1;;;5.7;;
15500;SDS011;7852;52.228;5.990;2023-10-08T03:32:12;6.1;;;5.8;;
15500;SDS011;7852;52.228;5.990;2023-10-08T03:33:11;6.3;;;5.9;;
15500;SDS011;7852;52.228;5.990;2023-10-08T03:34:11;5.9;;;5.6;;
15500;SDS011;7852;52.228;5.990;2023-10-08T03:35:11;6.2;;;5.7;;
15500;SDS011;7852;52.228;5.990;2023-10-08T03:36:13;6.2;;;5.7;;
15500;SDS011;7852;52.228;5.990;2023-10-08T03:37:12;6;;;5.7;;
15500;SDS011;7852;52.228;5.990;2023-10-08T03:38:11;6.1;;;5.8;;
15500;SDS011;7852;52.228;5.990;2023-10-08T03:39:12;6.7;;;6.3;;
15500;SDS011;7852;52.228;5.990;2023-10-08T03:40:11;6.3;;;6;;
15500;SDS011;7852;52.228;5.990;2023-10-08T03:41:11;6.7;;;6.3;;
15500;SDS011;7852;52.228;5.990;2023-10-08T03:42:11;6.8;;;6.2;;
15500;SDS011;7852;52.228;5.990;2023-10-08T03:43:11;6.2;;;5.6;;
15500;SDS011;7852;52.228;5.990;2023-10-08T03:44:11;6.2;;;5.8;;
15500;SDS011;7852;52.228;5.990;2023-10-08T03:45:11;6.1;;;5.8;;
15500;SDS011;7852;52.228;5.990;2023-10-08T03:46:11;6.3;;;5.9;;
15500;SDS011;7852;52.228;5.990;2023-10-08T03:47:11;6.5;;;6.2;;
15500;SDS011;7852;52.228;5.990;2023-10-08T03:48:11;6.6;;;6.2;;
15500;SDS011;7852;52.228;5.990;2023-10-08T03:49:12;7;;;6.4;;
15500;SDS011;7852;52.228;5.990;2023-10-08T03:50:11;6.6;;;6.2;;
15500;SDS011;7852;52.228;5.990;2023-10-08T03:51:11;7.3;;;6.6;;
15500;SDS011;7852;52.228;5.990;2023-10-08T03:52:12;6.8;;;6.3;;
15500;SDS011;7852;52.228;5.990;2023-10-08T03:53:11;6.5;;;6.1;;
15500;SDS011;7852;52.228;5.990;2023-10-08T03:54:11;7.2;;;6.7;;
15500;SDS011;7852;52.228;5.990;2023-10-08T03:55:11;6.7;;;6.2;;
15500;SDS011;7852;52.228;5.990;2023-10-08T03:56:11;6.8;;;6.3;;
15500;SDS011;7852;52.228;5.990;2023-10-08T03:57:11;6.3;;;6;;
15500;SDS011;7852;52.228;5.990;2023-10-08T03:58:11;6.9;;;6.3;;
15500;SDS011;7852;52.228;5.990;2023-10-08T03:59:12;7.1;;;6.4;;
15500;SDS011;7852;52.228;5.990;2023-10-08T04:00:12;6.9;;;6.5;;
15500;SDS011;7852;52.228;5.990;2023-10-08T04:01:11;6.6;;;6;;
15500;SDS011;7852;52.228;5.990;2023-10-08T04:02:12;6.1;;;5.7;;
15500;SDS011;7852;52.228;5.990;2023-10-08T04:03:13;6.5;;;6.1;;
15500;SDS011;7852;52.228;5.990;2023-10-08T04:04:11;6.7;;;6.1;;
15500;SDS011;7852;52.228;5.990;2023-10-08T04:05:11;6.6;;;6.2;;
15500;SDS011;7852;52.228;5.990;2023-10-08T04:06:11;6.5;;;6.1;;
15500;SDS011;7852;52.228;5.990;2023-10-08T04:07:11;6.1;;;5.7;;
15500;SDS011;7852;52.228;5.990;2023-10-08T04:08:11;6.4;;;6.1;;
15500;SDS011;7852;52.228;5.990;2023-10-08T04:09:11;6.5;;;6.1;;
15500;SDS011;7852;52.228;5.990;2023-10-08T04:10:11;6.7;;;6.3;;
15500;SDS011;7852;52.228;5.990;2023-10-08T04:11:11;6.4;;;6;;
15500;SDS011;7852;52.228;5.990;2023-10-08T04:12:11;6.4;;;6;;
15500;SDS011;7852;52.228;5.990;2023-10-08T04:13:11;6.6;;;6.1;;
15500;SDS011;7852;52.228;5.990;2023-10-08T04:14:11;5.8;;;5.5;;
15500;SDS011;7852;52.228;5.990;2023-10-08T04:15:12;7.1;;;6.6;;
15500;SDS011;7852;52.228;5.990;2023-10-08T04:16:11;6.1;;;5.8;;
15500;SDS011;7852;52.228;5.990;2023-10-08T04:17:11;6.2;;;5.8;;
15500;SDS011;7852;52.228;5.990;2023-10-08T04:18:11;6.8;;;6.3;;
15500;SDS011;7852;52.228;5.990;2023-10-08T04:19:11;6.3;;;5.9;;
15500;SDS011;7852;52.228;5.990;2023-10-08T04:20:12;6.3;;;5.8;;
15500;SDS011;7852;52.228;5.990;2023-10-08T04:21:11;6;;;5.7;;
15500;SDS011;7852;52.228;5.990;2023-10-08T04:22:11;6.7;;;6.3;;
15500;SDS011;7852;52.228;5.990;2023-10-08T04:23:11;5.7;;;5.4;;
15500;SDS011;7852;52.228;5.990;2023-10-08T04:24:11;6.5;;;6.2;;
15500;SDS011;7852;52.228;5.990;2023-10-08T04:25:11;5.7;;;5.4;;
15500;SDS011;7852;52.228;5.990;2023-10-08T04:26:11;6.1;;;5.8;;
15500;SDS011;7852;52.228;5.990;2023-10-08T04:27:11;6;;;5.6;;
15500;SDS011;7852;52.228;5.990;2023-10-08T04:28:11;6;;;5.6;;
15500;SDS011;7852;52.228;5.990;2023-10-08T04:29:11;6;;;5.7;;
15500;SDS011;7852;52.228;5.990;2023-10-08T04:30:12;6.3;;;5.9;;
15500;SDS011;7852;52.228;5.990;2023-10-08T04:31:11;6.1;;;5.8;;
15500;SDS011;7852;52.228;5.990;2023-10-08T04:32:11;6.2;;;5.7;;
15500;SDS011;7852;52.228;5.990;2023-10-08T04:33:11;6.1;;;5.7;;
15500;SDS011;7852;52.228;5.990;2023-10-08T04:34:12;6;;;5.7;;
15500;SDS011;7852;52.228;5.990;2023-10-08T04:35:11;6.2;;;5.7;;
15500;SDS011;7852;52.228;5.990;2023-10-08T04:36:11;5.7;;;5.3;;
15500;SDS011;7852;52.228;5.990;2023-10-08T04:37:11;5.6;;;5.4;;
15500;SDS011;7852;52.228;5.990;2023-10-08T04:38:11;6.1;;;5.7;;
15500;SDS011;7852;52.228;5.990;2023-10-08T04:39:12;5.9;;;5.6;;
15500;SDS011;7852;52.228;5.990;2023-10-08T04:40:11;5.7;;;5.4;;
15500;SDS011;7852;52.228;5.990;2023-10-08T04:41:11;5.6;;;5.2;;
15500;SDS011;7852;52.228;5.990;2023-10-08T04:42:11;5.6;;;5.3;;
15500;SDS011;7852;52.228;5.990;2023-10-08T04:43:11;5.2;;;5;;
15500;SDS011;7852;52.228;5.990;2023-10-08T04:44:11;5.9;;;5.6;;
15500;SDS011;7852;52.228;5.990;2023-10-08T04:45:11;4.9;;;4.7;;
15500;SDS011;7852;52.228;5.990;2023-10-08T04:46:11;5.6;;;5.4;;
15500;SDS011;7852;52.228;5.990;2023-10-08T04:47:11;5.6;;;5.4;;
15500;SDS011;7852;52.228;5.990;2023-10-08T04:48:11;6.7;;;6;;
15500;SDS011;7852;52.228;5.990;2023-10-08T04:49:12;5.6;;;5.3;;
15500;SDS011;7852;52.228;5.990;2023-10-08T04:50:11;5.7;;;5.4;;
15500;SDS011;7852;52.228;5.990;2023-10-08T04:51:11;5.5;;;5.2;;
15500;SDS011;7852;52.228;5.990;2023-10-08T04:52:11;6.4;;;6;;
15500;SDS011;7852;52.228;5.990;2023-10-08T04:53:11;7;;;6.5;;
15500;SDS011;7852;52.228;5.990;2023-10-08T04:54:11;6.6;;;6.3;;
15500;SDS011;7852;52.228;5.990;2023-10-08T04:55:11;6.5;;;6.1;;
15500;SDS011;7852;52.228;5.990;2023-10-08T04:56:12;6.8;;;6.4;;
15500;SDS011;7852;52.228;5.990;2023-10-08T04:57:11;7;;;6.6;;
15500;SDS011;7852;52.228;5.990;2023-10-08T04:58:11;6.9;;;6.5;;
15500;SDS011;7852;52.228;5.990;2023-10-08T04:59:11;8.1;;;6.6;;
15500;SDS011;7852;52.228;5.990;2023-10-08T05:00:12;6.6;;;6.2;;
15500;SDS011;7852;52.228;5.990;2023-10-08T05:01:12;6.8;;;6.4;;
15500;SDS011;7852;52.228;5.990;2023-10-08T05:02:12;6.5;;;6.2;;
15500;SDS011;7852;52.228;5.990;2023-10-08T05:03:11;6.9;;;6.4;;
15500;SDS011;7852;52.228;5.990;2023-10-08T05:04:11;6.8;;;6.5;;
15500;SDS011;7852;52.228;5.990;2023-10-08T05:05:11;7;;;6.7;;
15500;SDS011;7852;52.228;5.990;2023-10-08T05:06:11;6.8;;;6.5;;
15500;SDS011;7852;52.228;5.990;2023-10-08T05:07:11;7.3;;;6.8;;
15500;SDS011;7852;52.228;5.990;2023-10-08T05:08:11;6.7;;;6.4;;
15500;SDS011;7852;52.228;5.990;2023-10-08T05:09:12;7.4;;;7;;
15500;SDS011;7852;52.228;5.990;2023-10-08T05:10:12;6.6;;;6.3;;
15500;SDS011;7852;52.228;5.990;2023-10-08T05:11:11;7.4;;;7;;
15500;SDS011;7852;52.228;5.990;2023-10-08T05:12:11;7.3;;;6.8;;
15500;SDS011;7852;52.228;5.990;2023-10-08T05:13:11;6.5;;;6.1;;
15500;SDS011;7852;52.228;5.990;2023-10-08T05:14:11;6.9;;;6.5;;
15500;SDS011;7852;52.228;5.990;2023-10-08T05:15:11;7.1;;;6.7;;
15500;SDS011;7852;52.228;5.990;2023-10-08T05:16:12;7.1;;;6.7;;
15500;SDS011;7852;52.228;5.990;2023-10-08T05:17:11;7.5;;;6.9;;
15500;SDS011;7852;52.228;5.990;2023-10-08T05:18:11;7.4;;;7;;
15500;SDS011;7852;52.228;5.990;2023-10-08T05:19:11;7.3;;;6.8;;
15500;SDS011;7852;52.228;5.990;2023-10-08T05:20:11;7.1;;;6.7;;
15500;SDS011;7852;52.228;5.990;2023-10-08T05:21:11;6.9;;;6.5;;
15500;SDS011;7852;52.228;5.990;2023-10-08T05:22:12;6.9;;;6.4;;
15500;SDS011;7852;52.228;5.990;2023-10-08T05:23:12;6.9;;;6.6;;
15500;SDS011;7852;52.228;5.990;2023-10-08T05:24:11;7.6;;;7.1;;
15500;SDS011;7852;52.228;5.990;2023-10-08T05:25:11;7.7;;;7.3;;
15500;SDS011;7852;52.228;5.990;2023-10-08T05:26:11;7.5;;;7.1;;
15500;SDS011;7852;52.228;5.990;2023-10-08T05:27:11;7.1;;;6.6;;
15500;SDS011;7852;52.228;5.990;2023-10-08T05:28:11;7.1;;;6.7;;
15500;SDS011;7852;52.228;5.990;2023-10-08T05:29:11;7.2;;;6.7;;
15500;SDS011;7852;52.228;5.990;2023-10-08T05:30:12;7.2;;;6.8;;
15500;SDS011;7852;52.228;5.990;2023-10-08T05:31:12;7;;;6.6;;
15500;SDS011;7852;52.228;5.990;2023-10-08T05:32:11;7.3;;;6.9;;
15500;SDS011;7852;52.228;5.990;2023-10-08T05:33:11;7;;;6.6;;
15500;SDS011;7852;52.228;5.990;2023-10-08T05:34:11;7.2;;;6.8;;
15500;SDS011;7852;52.228;5.990;2023-10-08T05:35:11;7.2;;;6.8;;
15500;SDS011;7852;52.228;5.990;2023-10-08T05:36:11;6.9;;;6.5;;
15500;SDS011;7852;52.228;5.990;2023-10-08T05:37:11;7.1;;;6.8;;
15500;SDS011;7852;52.228;5.990;2023-10-08T05:38:15;7.3;;;6.9;;
15500;SDS011;7852;52.228;5.990;2023-10-08T05:39:11;8;;;7.5;;
15500;SDS011;7852;52.228;5.990;2023-10-08T05:40:11;7.4;;;7;;
15500;SDS011;7852;52.228;5.990;2023-10-08T05:41:11;7.5;;;7.1;;
15500;SDS011;7852;52.228;5.990;2023-10-08T05:42:11;8;;;7.6;;
15500;SDS011;7852;52.228;5.990;2023-10-08T05:43:11;7.6;;;7.1;;
15500;SDS011;7852;52.228;5.990;2023-10-08T05:44:12;7.5;;;7.1;;
15500;SDS011;7852;52.228;5.990;2023-10-08T05:45:12;8.1;;;7.5;;
15500;SDS011;7852;52.228;5.990;2023-10-08T05:46:12;7.6;;;7.1;;
15500;SDS011;7852;52.228;5.990;2023-10-08T05:47:12;8.1;;;7.5;;
15500;SDS011;7852;52.228;5.990;2023-10-08T05:48:11;8;;;7.3;;
15500;SDS011;7852;52.228;5.990;2023-10-08T05:49:12;8;;;7.5;;
15500;SDS011;7852;52.228;5.990;2023-10-08T05:50:11;8.4;;;7.8;;
15500;SDS011;7852;52.228;5.990;2023-10-08T05:51:11;8.5;;;7.7;;
15500;SDS011;7852;52.228;5.990;2023-10-08T05:52:11;8.4;;;7.8;;
15500;SDS011;7852;52.228;5.990;2023-10-08T05:53:11;8;;;7.6;;
15500;SDS011;7852;52.228;5.990;2023-10-08T05:54:12;7.9;;;7.5;;
15500;SDS011;7852;52.228;5.990;2023-10-08T05:55:12;8.9;;;8.3;;
15500;SDS011;7852;52.228;5.990;2023-10-08T05:56:11;8.1;;;7.6;;
15500;SDS011;7852;52.228;5.990;2023-10-08T05:57:11;8.2;;;7.8;;
15500;SDS011;7852;52.228;5.990;2023-10-08T05:58:11;8.1;;;7.6;;
15500;SDS011;7852;52.228;5.990;2023-10-08T05:59:11;8.5;;;8;;
15500;SDS011;7852;52.228;5.990;2023-10-08T06:00:12;8.1;;;7.5;;
15500;SDS011;7852;52.228;5.990;2023-10-08T06:01:11;8.6;;;8.1;;
15500;SDS011;7852;52.228;5.990;2023-10-08T06:02:11;8.3;;;7.7;;
15500;SDS011;7852;52.228;5.990;2023-10-08T06:03:12;8.3;;;7.7;;
15500;SDS011;7852;52.228;5.990;2023-10-08T06:04:11;8.5;;;7.8;;
15500;SDS011;7852;52.228;5.990;2023-10-08T06:05:12;8.2;;;7.7;;
15500;SDS011;7852;52.228;5.990;2023-10-08T06:06:11;8.3;;;7.7;;
15500;SDS011;7852;52.228;5.990;2023-10-08T06:07:12;7.7;;;7.1;;
15500;SDS011;7852;52.228;5.990;2023-10-08T06:08:11;8.2;;;7.5;;
15500;SDS011;7852;52.228;5.990;2023-10-08T06:09:11;7.9;;;7.4;;
15500;SDS011;7852;52.228;5.990;2023-10-08T06:10:12;8.1;;;7.6;;
15500;SDS011;7852;52.228;5.990;2023-10-08T06:11:11;8.3;;;7.8;;
15500;SDS011;7852;52.228;5.990;2023-10-08T06:12:11;8.6;;;8;;
15500;SDS011;7852;52.228;5.990;2023-10-08T06:13:12;8.7;;;8.1;;
15500;SDS011;7852;52.228;5.990;2023-10-08T06:14:11;8.4;;;7.9;;
15500;SDS011;7852;52.228;5.990;2023-10-08T06:15:12;8.1;;;7.6;;